Latest Coastal Weather Observations for Cape Moreton

IDQ60701

Issued at 6:42 am EST Wednesday 1 April 2015 (issued every 10 minutes, with the page automatically refreshed every 10 minutes)

About coastal observations | Map of coastal stations | Coastal observations for QLD | Marine services | Other Formats
Station Details ID: 040043 Name: CAPE MORETON LIGHTHOUSE Lat: -27.03 Lon: 153.47 Height: 99.9 m
Data from the previous 72 hours. | See also: Recent months at Cape Moreton
Date/Time
EST
Temp

°C
Wind Pressure Rain
since 9am
mm
Weather Cloud Vis
km
Sea
Height
m
Swell
Dir
 
Speed
knots
Gust
knots
hPa Trend Height
m
Period
s
Dir
01/06:30am 22.3 ESE 29 34 1018.9 - 25.8 - - - - - - -
01/06:29am 22.3 ESE 29 34 1018.8 - 25.8 - - - - - - -
01/06:08am 21.5 ESE 19 30 1018.9 - 25.6 - - - - - - -
01/06:00am 21.4 ESE 19 23 1019.2 - 25.4 Recent precip. - - - - - -
01/05:30am 20.9 E 17 21 1019.2 - 25.4 - - - - - - -
01/05:00am 20.9 E 19 22 1018.7 - 25.2 - - - - - - -
01/04:30am 20.5 ENE 19 23 1018.6 - 24.8 - - - - - - -
01/04:00am 19.9 ENE 24 27 1018.3 - 23.6 - - - - - - -
01/03:44am 20.5 ENE 27 32 1018.2 - 22.6 - - - - - - -
01/03:30am 20.1 ENE 35 41 1017.7 - 22.2 - - - - - - -
01/03:07am 20.6 ENE 32 42 1017.3 - 17.8 - - - - - - -
01/03:00am 21.4 ENE 30 35 1017.6 - 17.6 Recent precip. - - - - - -
01/02:30am 22.1 E 25 29 1018.2 - 17.6 - - - - - - -
01/02:00am 21.6 E 22 26 1018.6 - 17.4 - - - - - - -
01/01:33am 19.9 NE 19 29 1019.0 - 17.0 - - - - - - -
01/01:30am 20.0 NNE 20 29 1019.2 - 16.8 - - - - - - -
01/01:26am 20.0 NE 20 29 1019.3 - 16.4 - - - - - - -
01/01:14am 21.6 E 15 25 1019.1 - 16.4 - - - - - - -
01/01:00am 20.2 E 22 27 1019.3 - 16.4 - - - - - - -
01/12:12am 22.7 ENE 19 32 1019.5 - 12.2 - - - - - - -
 
Date/Time
EST
Temp

°C
Wind Pressure Rain
since 9am
mm
Weather Cloud Vis
km
Sea
Height
m
Swell
Dir
 
Speed
knots
Gust
knots
hPa Trend Height
m
Period
s
Dir
31/11:30pm 22.0 E 15 19 1019.8 - 12.2 - - - - - - -
31/11:00pm 21.4 E 18 21 1020.3 - 12.0 - - - - - - -
31/10:30pm 20.9 E 15 23 1020.9 - 10.6 - - - - - - -
31/10:14pm 21.5 ESE 21 31 1020.8 - 3.0 - - - - - - -
31/10:00pm 21.9 ESE 21 26 1020.6 - 3.0 - - - - - - -
31/09:59pm 21.9 ESE 21 26 1020.6 - 3.0 - - - - - - -
31/09:30pm 21.2 ESE 12 15 1021.1 - 3.0 - - - - - - -
31/09:00pm 21.2 E 19 23 1021.1 - 2.8 - - - - - - -
31/08:30pm 20.9 ESE 27 31 1020.5 - 2.8 - - - - - - -
31/08:12pm 22.4 ESE 23 31 1020.3 - 2.8 - - - - - - -
31/08:00pm 22.4 ESE 19 21 1020.9 - 2.8 - - - - - - -
31/07:30pm 22.0 ESE 21 25 1020.7 - 2.8 - - - - - - -
31/07:00pm 21.9 ESE 23 27 1020.0 - 2.8 - - - - - - -
31/06:30pm 22.1 ESE 22 25 1019.8 - 2.8 - - - - - - -
31/06:00pm 21.9 ESE 20 23 1019.7 - 2.8 - - - - - - -
31/05:30pm 21.8 ESE 17 21 1019.8 - 2.8 - - - - - - -
31/05:00pm 21.9 ESE 17 20 1019.8 - 2.8 - - - - - - -
31/04:30pm 21.5 ESE 18 21 1019.6 - 2.8 - - - - - - -
31/04:00pm 21.0 E 17 21 1019.8 - 2.6 - - - - - - -
31/03:30pm 20.3 ESE 21 25 1019.9 - 2.0 - - - - - - -
31/03:00pm 20.3 ESE 24 30 1019.7 - 0.8 Rain - - - - - -
31/02:53pm 21.0 ESE 19 30 1019.5 - 0.4 - - - - - - -
31/02:30pm 22.2 SE 20 24 1019.5 - 0.0 - - - - - - -
31/02:00pm 23.4 ESE 13 16 1020.2 - 0.0 - - - - - - -
31/01:30pm 23.3 ESE 15 18 1020.5 - 0.0 - - - - - - -
31/01:00pm 23.9 ESE 17 20 1020.2 - 0.0 - - - - - - -
31/12:30pm 23.9 ESE 14 17 1020.8 - 0.0 - - - - - - -
31/12:00pm 24.0 ESE 14 17 1021.3 - 0.0 - - - - - - -
31/11:30am 24.2 ESE 14 16 1021.5 - 0.0 - - - - - - -
31/11:00am 24.5 ESE 13 15 1022.0 - 0.0 - - - - - - -
31/10:30am 24.3 ESE 13 16 1022.0 - 0.0 - - - - - - -
31/10:00am 24.4 ESE 12 14 1022.4 - 0.0 - - - - - - -
31/09:30am 24.2 ESE 11 14 1022.7 - 0.0 - - - - - - -
31/09:00am 24.1 ESE 13 15 1022.5 - 0.0 - - - - - - -
31/08:30am 23.9 ESE 12 15 1022.1 - 0.0 - - - - - - -
31/08:00am 23.7 ESE 12 14 1022.0 - 0.0 - - - - - - -
31/07:30am 23.5 E 11 14 1021.7 - 0.0 - - - - - - -
31/07:00am 23.4 E 12 15 1021.5 - 0.0 - - - - - - -
31/06:30am 23.2 E 15 17 1021.1 - 0.0 - - - - - - -
31/06:00am 23.2 E 16 20 1020.7 - 0.0 - - - - - - -
31/05:30am 23.3 E 15 18 1020.6 - 0.0 - - - - - - -
31/05:00am 23.2 E 13 16 1020.6 - 0.0 - - - - - - -
31/04:30am 23.0 E 11 16 1020.6 - 0.0 - - - - - - -
31/04:00am 23.1 ESE 13 15 1020.6 - 0.0 - - - - - - -
31/03:30am 22.9 ESE 13 15 1020.5 - 0.0 - - - - - - -
31/03:00am 23.0 ESE 12 15 1020.6 - 0.0 - - - - - - -
31/02:30am 22.9 ESE 12 17 1020.7 - 0.0 - - - - - - -
31/02:00am 23.1 E 13 16 1021.0 - 0.0 - - - - - - -
31/01:30am 23.1 E 12 16 1021.5 - 0.0 - - - - - - -
31/01:00am 23.1 ESE 12 15 1021.7 - 0.0 - - - - - - -
31/12:30am 23.2 E 14 17 1021.8 - 0.0 - - - - - - -
31/12:00am 23.2 E 14 17 1022.1 - 0.0 - - - - - - -
 
Date/Time
EST
Temp

°C
Wind Pressure Rain
since 9am
mm
Weather Cloud Vis
km
Sea
Height
m
Swell
Dir
 
Speed
knots
Gust
knots
hPa Trend Height
m
Period
s
Dir
30/11:30pm 23.2 E 15 18 1021.9 - 0.0 - - - - - - -
30/11:00pm 23.2 E 14 17 1022.3 - 0.0 - - - - - - -
30/10:30pm 23.3 E 15 18 1022.4 - 0.0 - - - - - - -
30/10:00pm 23.4 E 15 18 1022.7 - 0.0 - - - - - - -
30/09:30pm 23.4 E 15 18 1022.8 - 0.0 - - - - - - -
30/09:00pm 22.4 E 14 19 1022.9 - 0.0 - - - - - - -
30/08:30pm 23.5 ESE 13 16 1022.7 - 0.0 - - - - - - -
30/08:00pm 23.3 ESE 13 16 1022.5 - 0.0 - - - - - - -
30/07:30pm 23.3 ESE 12 14 1022.4 - 0.0 - - - - - - -
30/07:00pm 23.4 ESE 13 17 1022.0 - 0.0 - - - - - - -
30/06:30pm 23.6 ESE 12 15 1021.7 - 0.0 - - - - - - -
30/06:00pm 23.5 E 10 12 1021.5 - 0.0 - - - - - - -
30/05:30pm 23.7 E 11 14 1021.2 - 0.0 - - - - - - -
30/05:00pm 23.6 E 9 12 1021.0 - 0.0 - - - - - - -
30/04:30pm 23.8 ESE 12 15 1020.6 - 0.0 - - - - - - -
30/04:00pm 23.9 E 12 14 1020.5 - 0.0 - - - - - - -
30/03:30pm 24.7 E 11 14 1020.6 - 0.0 - - - - - - -
30/03:00pm 24.8 E 10 12 1020.6 - 0.0 - - - - - - -
30/02:30pm 25.7 E 10 13 1020.7 - 0.0 - - - - - - -
30/02:00pm 25.8 E 11 13 1020.7 - 0.0 - - - - - - -
30/01:30pm 26.4 E 11 13 1021.2 - 0.0 - - - - - - -
30/01:00pm 24.3 E 13 16 1021.4 - 0.0 - - - - - - -
30/12:30pm 24.6 E 14 17 1021.7 - 0.0 - - - - - - -
30/12:00pm 26.2 E 12 15 1022.5 - 0.0 - - - - - - -
30/11:30am 25.0 E 11 13 1023.1 - 0.0 - - - - - - -
30/11:00am 25.3 E 11 13 1023.7 - 0.0 - - - - - - -
30/10:30am 25.5 E 12 15 1023.5 - 0.0 - - - - - - -
30/10:00am 25.4 E 17 20 1023.1 - 0.0 - - - - - - -
30/09:30am 24.1 E 14 16 1023.8 - 0.0 - - - - - - -
30/09:00am 24.7 E 14 18 1023.3 - 0.0 - - - - - - -
30/08:30am 25.0 E 13 16 1023.2 - 0.0 - - - - - - -
30/08:00am 25.0 E 15 17 1023.0 - 0.0 - - - - - - -
30/07:30am 25.0 E 15 18 1022.8 - 0.0 - - - - - - -
30/07:00am 23.9 E 16 20 1022.4 - 0.0 - - - - - - -
30/06:30am 23.3 E 14 17 1022.0 - 0.0 - - - - - - -
30/06:00am 23.1 E 15 18 1022.0 - 0.0 - - - - - - -
30/05:30am 23.1 ENE 15 18 1021.6 - 0.0 - - - - - - -
30/05:00am 23.2 ENE 15 18 1021.3 - 0.0 - - - - - - -
30/04:30am 23.1 ENE 17 20 1020.7 - 0.0 - - - - - - -
30/04:00am 23.2 ENE 15 18 1020.8 - 0.0 - - - - - - -
30/03:30am 23.2 ENE 16 19 1020.9 - 0.0 - - - - - - -
30/03:00am 23.2 ENE 15 18 1021.1 - 0.0 - - - - - - -
30/02:30am 23.1 ENE 17 19 1021.0 - 0.0 - - - - - - -
30/02:00am 23.2 ENE 17 19 1021.4 - 0.0 - - - - - - -
30/01:30am 23.1 E 17 22 1021.3 - 0.0 - - - - - - -
30/01:00am 23.2 ENE 16 19 1021.8 - 0.0 - - - - - - -
30/12:30am 23.2 ENE 17 20 1021.9 - 0.0 - - - - - - -
30/12:00am 23.3 E 16 20 1021.9 - 0.0 - - - - - - -
 
Date/Time
EST
Temp

°C
Wind Pressure Rain
since 9am
mm
Weather Cloud Vis
km
Sea
Height
m
Swell
Dir
 
Speed
knots
Gust
knots
hPa Trend Height
m
Period
s
Dir
29/11:30pm 23.2 E 17 21 1022.2 - 0.0 - - - - - - -
29/11:00pm 23.4 E 17 20 1022.2 - 0.0 - - - - - - -
29/10:30pm 23.3 E 19 21 1021.9 - 0.0 - - - - - - -
29/10:00pm 23.3 E 17 20 1022.3 - 0.0 - - - - - - -
29/09:30pm 23.4 ENE 15 19 1022.8 - 0.0 - - - - - - -
29/09:00pm 23.4 E 15 18 1022.7 - 0.0 - - - - - - -
29/08:30pm 23.4 E 17 19 1022.5 - 0.0 - - - - - - -
29/08:00pm 23.4 E 16 19 1022.3 - 0.0 - - - - - - -
29/07:30pm 23.4 E 15 18 1022.0 - 0.0 - - - - - - -
29/07:00pm 23.5 E 14 18 1021.8 - 0.0 - - - - - - -
29/06:30pm 23.4 E 14 17 1021.4 - 0.0 - - - - - - -
29/06:00pm 23.4 E 14 17 1021.2 - 0.0 - - - - - - -
29/05:30pm 23.7 E 13 15 1021.1 - 0.0 - - - - - - -
29/05:00pm 23.9 E 12 15 1021.2 - 0.0 - - - - - - -
29/04:30pm 24.1 E 11 15 1021.2 - 0.0 - - - - - - -
29/04:00pm 24.5 E 12 15 1021.0 - 0.0 - - - - - - -
29/03:30pm 24.8 ESE 13 15 1020.9 - 0.0 - - - - - - -
29/03:00pm 25.4 E 11 13 1021.0 - 0.0 - - - - - - -
29/02:30pm 25.8 E 12 15 1021.0 - 0.0 - - - - - - -
29/02:00pm 26.0 E 12 14 1021.2 - 0.0 - - - - - - -
29/01:30pm 25.8 E 13 15 1021.4 - 0.0 - - - - - - -
29/01:00pm 25.9 E 14 17 1021.5 - 0.0 - - - - - - -
29/12:30pm 26.5 E 13 16 1021.9 - 0.0 - - - - - - -
29/12:00pm 26.3 ESE 13 16 1022.4 - 0.0 - - - - - - -
29/11:30am 26.0 E 14 16 1022.8 - 0.0 - - - - - - -
29/11:00am 26.4 ESE 14 17 1023.1 - 0.0 - - - - - - -
29/10:30am 26.7 E 15 18 1023.2 - 0.0 - - - - - - -
29/10:00am 26.2 E 15 19 1023.3 - 0.0 - - - - - - -
29/09:30am 25.9 E 16 18 1023.2 - 0.0 - - - - - - -
29/09:00am 26.0 E 16 20 1022.9 - 0.0 - - - - - - -
29/08:30am 25.4 E 17 20 1022.8 - 0.0 - - - - - - -
29/08:00am 25.0 ESE 17 21 1022.5 - 0.0 - - - - - - -
29/07:30am 24.5 ESE 17 21 1022.0 - 0.0 - - - - - - -
29/07:00am 24.4 ESE 17 20 1021.5 - 0.0 - - - - - - -

Other Formats:

Comma delimited format used in spreadsheet applications
http://www.bom.gov.au/fwo/IDQ60701/IDQ60701.94594.axf

JavaScript Object Notation format (JSON) in row-major order
http://www.bom.gov.au/fwo/IDQ60701/IDQ60701.94594.json